sensor_id;sensor_type;location;lat;lon;timestamp;P1;durP1;ratioP1;P2;durP2;ratioP2
9547;SDS011;4812;51.992;8.648;2022-12-18T00:02:00;28.50;;;15.93;;
9547;SDS011;4812;51.992;8.648;2022-12-18T00:04:28;21.90;;;15.27;;
9547;SDS011;4812;51.992;8.648;2022-12-18T00:06:56;33.83;;;18.53;;
9547;SDS011;4812;51.992;8.648;2022-12-18T00:09:24;33.13;;;18.37;;
9547;SDS011;4812;51.992;8.648;2022-12-18T00:12:04;41.23;;;19.33;;
9547;SDS011;4812;51.992;8.648;2022-12-18T00:14:41;29.67;;;16.13;;
9547;SDS011;4812;51.992;8.648;2022-12-18T00:17:11;22.97;;;14.43;;
9547;SDS011;4812;51.992;8.648;2022-12-18T00:19:38;28.50;;;16.13;;
9547;SDS011;4812;51.992;8.648;2022-12-18T00:22:07;24.70;;;16.50;;
9547;SDS011;4812;51.992;8.648;2022-12-18T00:24:35;27.60;;;17.60;;
9547;SDS011;4812;51.992;8.648;2022-12-18T00:27:02;31.27;;;17.07;;
9547;SDS011;4812;51.992;8.648;2022-12-18T00:29:30;28.23;;;17.43;;
9547;SDS011;4812;51.992;8.648;2022-12-18T00:31:57;31.60;;;18.40;;
9547;SDS011;4812;51.992;8.648;2022-12-18T00:34:25;31.57;;;17.63;;
9547;SDS011;4812;51.992;8.648;2022-12-18T00:36:52;33.33;;;19.33;;
9547;SDS011;4812;51.992;8.648;2022-12-18T00:39:22;26.80;;;17.27;;
9547;SDS011;4812;51.992;8.648;2022-12-18T00:41:49;30.97;;;16.70;;
9547;SDS011;4812;51.992;8.648;2022-12-18T00:44:34;33.23;;;17.30;;
9547;SDS011;4812;51.992;8.648;2022-12-18T00:47:02;38.53;;;18.80;;
9547;SDS011;4812;51.992;8.648;2022-12-18T00:49:29;35.27;;;16.93;;
9547;SDS011;4812;51.992;8.648;2022-12-18T00:51:57;29.30;;;17.43;;
9547;SDS011;4812;51.992;8.648;2022-12-18T00:54:26;29.83;;;17.10;;
9547;SDS011;4812;51.992;8.648;2022-12-18T00:56:53;28.43;;;16.57;;
9547;SDS011;4812;51.992;8.648;2022-12-18T00:59:21;32.80;;;19.50;;
9547;SDS011;4812;51.992;8.648;2022-12-18T01:01:49;30.37;;;17.87;;
9547;SDS011;4812;51.992;8.648;2022-12-18T01:04:19;28.73;;;17.10;;
9547;SDS011;4812;51.992;8.648;2022-12-18T01:06:46;27.90;;;15.03;;
9547;SDS011;4812;51.992;8.648;2022-12-18T01:09:14;21.63;;;15.53;;
9547;SDS011;4812;51.992;8.648;2022-12-18T01:11:43;34.10;;;16.20;;
9547;SDS011;4812;51.992;8.648;2022-12-18T01:14:10;30.13;;;18.03;;
9547;SDS011;4812;51.992;8.648;2022-12-18T01:16:38;30.07;;;17.33;;
9547;SDS011;4812;51.992;8.648;2022-12-18T01:19:05;29.43;;;15.43;;
9547;SDS011;4812;51.992;8.648;2022-12-18T01:21:33;27.20;;;17.43;;
9547;SDS011;4812;51.992;8.648;2022-12-18T01:24:03;31.30;;;18.73;;
9547;SDS011;4812;51.992;8.648;2022-12-18T01:26:31;28.43;;;18.53;;
9547;SDS011;4812;51.992;8.648;2022-12-18T01:28:59;25.80;;;18.93;;
9547;SDS011;4812;51.992;8.648;2022-12-18T01:31:28;30.93;;;19.30;;
9547;SDS011;4812;51.992;8.648;2022-12-18T01:33:57;33.17;;;17.10;;
9547;SDS011;4812;51.992;8.648;2022-12-18T01:36:28;32.33;;;16.87;;
9547;SDS011;4812;51.992;8.648;2022-12-18T01:38:58;29.50;;;19.07;;
9547;SDS011;4812;51.992;8.648;2022-12-18T01:41:27;32.83;;;18.00;;
9547;SDS011;4812;51.992;8.648;2022-12-18T01:47:23;35.87;;;17.13;;
9547;SDS011;4812;51.992;8.648;2022-12-18T01:49:55;32.37;;;17.20;;
9547;SDS011;4812;51.992;8.648;2022-12-18T01:52:23;25.00;;;16.40;;
9547;SDS011;4812;51.992;8.648;2022-12-18T01:54:52;26.73;;;18.33;;
9547;SDS011;4812;51.992;8.648;2022-12-18T01:57:20;25.73;;;16.63;;
9547;SDS011;4812;51.992;8.648;2022-12-18T01:59:49;30.80;;;17.53;;
9547;SDS011;4812;51.992;8.648;2022-12-18T02:02:18;25.83;;;16.43;;
9547;SDS011;4812;51.992;8.648;2022-12-18T02:04:48;27.70;;;18.70;;
9547;SDS011;4812;51.992;8.648;2022-12-18T02:07:17;24.63;;;16.80;;
9547;SDS011;4812;51.992;8.648;2022-12-18T02:09:50;29.50;;;16.73;;
9547;SDS011;4812;51.992;8.648;2022-12-18T02:12:21;21.13;;;16.03;;
9547;SDS011;4812;51.992;8.648;2022-12-18T02:14:52;24.57;;;15.93;;
9547;SDS011;4812;51.992;8.648;2022-12-18T02:17:24;27.13;;;17.57;;
9547;SDS011;4812;51.992;8.648;2022-12-18T02:20:01;20.30;;;15.93;;
9547;SDS011;4812;51.992;8.648;2022-12-18T02:22:36;28.50;;;18.07;;
9547;SDS011;4812;51.992;8.648;2022-12-18T02:25:13;29.70;;;17.13;;
9547;SDS011;4812;51.992;8.648;2022-12-18T02:27:48;26.13;;;17.23;;
9547;SDS011;4812;51.992;8.648;2022-12-18T02:30:16;27.27;;;16.87;;
9547;SDS011;4812;51.992;8.648;2022-12-18T02:32:45;24.50;;;15.83;;
9547;SDS011;4812;51.992;8.648;2022-12-18T02:35:16;25.27;;;16.53;;
9547;SDS011;4812;51.992;8.648;2022-12-18T02:37:50;30.93;;;15.43;;
9547;SDS011;4812;51.992;8.648;2022-12-18T02:40:18;22.53;;;15.20;;
9547;SDS011;4812;51.992;8.648;2022-12-18T02:42:48;22.67;;;15.17;;
9547;SDS011;4812;51.992;8.648;2022-12-18T02:45:17;27.33;;;16.10;;
9547;SDS011;4812;51.992;8.648;2022-12-18T02:47:46;21.50;;;15.50;;
9547;SDS011;4812;51.992;8.648;2022-12-18T02:50:16;22.47;;;16.10;;
9547;SDS011;4812;51.992;8.648;2022-12-18T02:52:54;29.70;;;14.90;;
9547;SDS011;4812;51.992;8.648;2022-12-18T02:55:28;36.93;;;17.87;;
9547;SDS011;4812;51.992;8.648;2022-12-18T02:58:09;28.33;;;16.73;;
9547;SDS011;4812;51.992;8.648;2022-12-18T03:00:41;31.53;;;17.30;;
9547;SDS011;4812;51.992;8.648;2022-12-18T03:03:11;25.07;;;15.83;;
9547;SDS011;4812;51.992;8.648;2022-12-18T03:05:43;22.87;;;15.63;;
9547;SDS011;4812;51.992;8.648;2022-12-18T03:08:17;25.47;;;16.17;;
9547;SDS011;4812;51.992;8.648;2022-12-18T03:10:49;26.10;;;15.73;;
9547;SDS011;4812;51.992;8.648;2022-12-18T03:13:23;24.23;;;17.20;;
9547;SDS011;4812;51.992;8.648;2022-12-18T03:15:53;28.63;;;14.23;;
9547;SDS011;4812;51.992;8.648;2022-12-18T03:18:23;20.17;;;14.37;;
9547;SDS011;4812;51.992;8.648;2022-12-18T03:20:52;26.43;;;14.87;;
9547;SDS011;4812;51.992;8.648;2022-12-18T03:23:22;25.10;;;16.07;;
9547;SDS011;4812;51.992;8.648;2022-12-18T03:25:52;24.73;;;16.17;;
9547;SDS011;4812;51.992;8.648;2022-12-18T03:28:31;23.37;;;15.03;;
9547;SDS011;4812;51.992;8.648;2022-12-18T03:31:02;18.60;;;12.77;;
9547;SDS011;4812;51.992;8.648;2022-12-18T03:33:34;23.87;;;14.47;;
9547;SDS011;4812;51.992;8.648;2022-12-18T03:36:06;17.27;;;12.43;;
9547;SDS011;4812;51.992;8.648;2022-12-18T03:38:34;19.30;;;12.63;;
9547;SDS011;4812;51.992;8.648;2022-12-18T03:41:03;24.27;;;14.00;;
9547;SDS011;4812;51.992;8.648;2022-12-18T03:43:45;22.10;;;12.73;;
9547;SDS011;4812;51.992;8.648;2022-12-18T03:46:17;18.67;;;11.97;;
9547;SDS011;4812;51.992;8.648;2022-12-18T03:48:51;20.13;;;12.23;;
9547;SDS011;4812;51.992;8.648;2022-12-18T03:51:23;21.97;;;13.13;;
9547;SDS011;4812;51.992;8.648;2022-12-18T03:53:53;20.27;;;14.03;;
9547;SDS011;4812;51.992;8.648;2022-12-18T03:56:28;19.97;;;14.17;;
9547;SDS011;4812;51.992;8.648;2022-12-18T03:58:59;24.20;;;15.90;;
9547;SDS011;4812;51.992;8.648;2022-12-18T04:01:30;21.20;;;13.33;;
9547;SDS011;4812;51.992;8.648;2022-12-18T04:04:00;21.37;;;13.17;;
9547;SDS011;4812;51.992;8.648;2022-12-18T04:06:32;15.83;;;11.97;;
9547;SDS011;4812;51.992;8.648;2022-12-18T04:09:03;18.50;;;12.23;;
9547;SDS011;4812;51.992;8.648;2022-12-18T04:11:35;19.47;;;12.83;;
9547;SDS011;4812;51.992;8.648;2022-12-18T04:14:05;19.80;;;13.30;;
9547;SDS011;4812;51.992;8.648;2022-12-18T04:16:35;16.63;;;11.73;;
9547;SDS011;4812;51.992;8.648;2022-12-18T04:19:05;20.43;;;13.93;;
9547;SDS011;4812;51.992;8.648;2022-12-18T04:21:37;21.50;;;13.00;;
9547;SDS011;4812;51.992;8.648;2022-12-18T04:24:05;21.90;;;12.47;;
9547;SDS011;4812;51.992;8.648;2022-12-18T04:26:36;18.53;;;11.93;;
9547;SDS011;4812;51.992;8.648;2022-12-18T04:29:13;18.20;;;12.77;;
9547;SDS011;4812;51.992;8.648;2022-12-18T04:31:41;20.30;;;12.73;;
9547;SDS011;4812;51.992;8.648;2022-12-18T04:34:08;24.00;;;13.43;;
9547;SDS011;4812;51.992;8.648;2022-12-18T04:36:41;20.67;;;14.13;;
9547;SDS011;4812;51.992;8.648;2022-12-18T04:39:09;19.03;;;13.10;;
9547;SDS011;4812;51.992;8.648;2022-12-18T04:41:37;22.73;;;12.90;;
9547;SDS011;4812;51.992;8.648;2022-12-18T04:44:04;17.97;;;12.23;;
9547;SDS011;4812;51.992;8.648;2022-12-18T04:46:33;22.27;;;12.93;;
9547;SDS011;4812;51.992;8.648;2022-12-18T04:49:01;19.03;;;11.80;;
9547;SDS011;4812;51.992;8.648;2022-12-18T04:51:28;18.77;;;12.53;;
9547;SDS011;4812;51.992;8.648;2022-12-18T04:53:56;20.33;;;12.60;;
9547;SDS011;4812;51.992;8.648;2022-12-18T04:56:23;18.80;;;12.10;;
9547;SDS011;4812;51.992;8.648;2022-12-18T04:58:51;20.03;;;12.30;;
9547;SDS011;4812;51.992;8.648;2022-12-18T05:01:18;19.63;;;11.80;;
9547;SDS011;4812;51.992;8.648;2022-12-18T05:03:47;21.00;;;11.97;;
9547;SDS011;4812;51.992;8.648;2022-12-18T05:06:15;17.83;;;12.97;;
9547;SDS011;4812;51.992;8.648;2022-12-18T05:08:42;20.73;;;12.67;;
9547;SDS011;4812;51.992;8.648;2022-12-18T05:11:12;19.03;;;12.67;;
9547;SDS011;4812;51.992;8.648;2022-12-18T05:13:42;16.53;;;12.70;;
9547;SDS011;4812;51.992;8.648;2022-12-18T05:16:10;17.00;;;10.97;;
9547;SDS011;4812;51.992;8.648;2022-12-18T05:18:37;20.13;;;12.97;;
9547;SDS011;4812;51.992;8.648;2022-12-18T05:21:06;20.67;;;12.77;;
9547;SDS011;4812;51.992;8.648;2022-12-18T05:23:33;22.93;;;13.37;;
9547;SDS011;4812;51.992;8.648;2022-12-18T05:26:03;17.27;;;12.50;;
9547;SDS011;4812;51.992;8.648;2022-12-18T05:28:32;15.37;;;10.97;;
9547;SDS011;4812;51.992;8.648;2022-12-18T05:31:02;18.53;;;11.80;;
9547;SDS011;4812;51.992;8.648;2022-12-18T05:33:30;22.50;;;12.20;;
9547;SDS011;4812;51.992;8.648;2022-12-18T05:36:02;19.30;;;11.70;;
9547;SDS011;4812;51.992;8.648;2022-12-18T05:38:33;18.63;;;12.67;;
9547;SDS011;4812;51.992;8.648;2022-12-18T05:41:02;16.63;;;10.37;;
9547;SDS011;4812;51.992;8.648;2022-12-18T05:43:29;19.27;;;12.13;;
9547;SDS011;4812;51.992;8.648;2022-12-18T05:45:57;17.27;;;11.43;;
9547;SDS011;4812;51.992;8.648;2022-12-18T05:48:24;17.67;;;11.37;;
9547;SDS011;4812;51.992;8.648;2022-12-18T05:50:52;14.40;;;10.80;;
9547;SDS011;4812;51.992;8.648;2022-12-18T05:53:19;24.60;;;12.77;;
9547;SDS011;4812;51.992;8.648;2022-12-18T05:55:49;16.90;;;11.90;;
9547;SDS011;4812;51.992;8.648;2022-12-18T05:58:16;18.70;;;12.03;;
9547;SDS011;4812;51.992;8.648;2022-12-18T06:00:44;15.90;;;11.77;;
9547;SDS011;4812;51.992;8.648;2022-12-18T06:03:13;18.13;;;12.00;;
9547;SDS011;4812;51.992;8.648;2022-12-18T06:05:41;22.40;;;12.43;;
9547;SDS011;4812;51.992;8.648;2022-12-18T06:08:11;20.70;;;13.20;;
9547;SDS011;4812;51.992;8.648;2022-12-18T06:10:39;16.97;;;12.53;;
9547;SDS011;4812;51.992;8.648;2022-12-18T06:13:08;19.20;;;12.60;;
9547;SDS011;4812;51.992;8.648;2022-12-18T06:15:36;21.00;;;12.43;;
9547;SDS011;4812;51.992;8.648;2022-12-18T06:18:03;19.90;;;13.37;;
9547;SDS011;4812;51.992;8.648;2022-12-18T06:20:31;19.80;;;13.17;;
9547;SDS011;4812;51.992;8.648;2022-12-18T06:22:59;17.30;;;12.40;;
9547;SDS011;4812;51.992;8.648;2022-12-18T06:25:26;22.47;;;13.30;;
9547;SDS011;4812;51.992;8.648;2022-12-18T06:27:54;20.17;;;11.70;;
9547;SDS011;4812;51.992;8.648;2022-12-18T06:30:23;20.43;;;12.60;;
9547;SDS011;4812;51.992;8.648;2022-12-18T06:32:50;19.57;;;11.40;;
9547;SDS011;4812;51.992;8.648;2022-12-18T06:35:22;19.57;;;11.57;;
9547;SDS011;4812;51.992;8.648;2022-12-18T06:37:49;13.73;;;10.47;;
9547;SDS011;4812;51.992;8.648;2022-12-18T06:40:17;18.70;;;12.90;;
9547;SDS011;4812;51.992;8.648;2022-12-18T06:42:45;19.00;;;12.47;;
9547;SDS011;4812;51.992;8.648;2022-12-18T06:45:15;20.17;;;11.73;;
9547;SDS011;4812;51.992;8.648;2022-12-18T06:47:44;19.97;;;12.80;;
9547;SDS011;4812;51.992;8.648;2022-12-18T06:50:12;23.10;;;13.50;;
9547;SDS011;4812;51.992;8.648;2022-12-18T06:52:40;18.60;;;10.97;;
9547;SDS011;4812;51.992;8.648;2022-12-18T06:55:08;20.30;;;11.90;;
9547;SDS011;4812;51.992;8.648;2022-12-18T06:57:36;20.53;;;11.93;;
9547;SDS011;4812;51.992;8.648;2022-12-18T07:00:05;21.03;;;11.63;;
9547;SDS011;4812;51.992;8.648;2022-12-18T07:02:33;23.23;;;12.60;;
9547;SDS011;4812;51.992;8.648;2022-12-18T07:05:02;18.43;;;12.30;;
9547;SDS011;4812;51.992;8.648;2022-12-18T07:07:36;20.97;;;12.70;;
9547;SDS011;4812;51.992;8.648;2022-12-18T07:10:04;16.27;;;11.97;;
9547;SDS011;4812;51.992;8.648;2022-12-18T07:12:32;19.83;;;13.27;;
9547;SDS011;4812;51.992;8.648;2022-12-18T07:14:59;20.47;;;13.63;;
9547;SDS011;4812;51.992;8.648;2022-12-18T07:17:26;18.97;;;12.57;;
9547;SDS011;4812;51.992;8.648;2022-12-18T07:19:54;20.23;;;11.43;;
9547;SDS011;4812;51.992;8.648;2022-12-18T07:22:23;28.57;;;13.20;;
9547;SDS011;4812;51.992;8.648;2022-12-18T07:24:51;18.00;;;12.27;;
9547;SDS011;4812;51.992;8.648;2022-12-18T07:27:19;19.50;;;12.63;;
9547;SDS011;4812;51.992;8.648;2022-12-18T07:29:46;17.10;;;12.00;;
9547;SDS011;4812;51.992;8.648;2022-12-18T07:32:14;13.67;;;10.80;;
9547;SDS011;4812;51.992;8.648;2022-12-18T07:34:41;14.37;;;10.27;;
9547;SDS011;4812;51.992;8.648;2022-12-18T07:37:09;18.47;;;10.23;;
9547;SDS011;4812;51.992;8.648;2022-12-18T07:39:38;15.23;;;10.67;;
9547;SDS011;4812;51.992;8.648;2022-12-18T07:42:08;18.23;;;12.77;;
9547;SDS011;4812;51.992;8.648;2022-12-18T07:44:53;18.13;;;10.73;;
9547;SDS011;4812;51.992;8.648;2022-12-18T07:47:21;21.07;;;12.07;;
9547;SDS011;4812;51.992;8.648;2022-12-18T07:49:49;17.97;;;10.47;;
9547;SDS011;4812;51.992;8.648;2022-12-18T07:52:16;11.60;;;8.93;;
9547;SDS011;4812;51.992;8.648;2022-12-18T07:54:52;11.33;;;8.17;;
9547;SDS011;4812;51.992;8.648;2022-12-18T07:57:19;12.53;;;9.77;;
9547;SDS011;4812;51.992;8.648;2022-12-18T08:00:07;19.97;;;9.87;;
9547;SDS011;4812;51.992;8.648;2022-12-18T08:02:38;16.33;;;9.97;;
9547;SDS011;4812;51.992;8.648;2022-12-18T08:05:07;17.37;;;10.03;;
9547;SDS011;4812;51.992;8.648;2022-12-18T08:07:35;18.63;;;10.10;;
9547;SDS011;4812;51.992;8.648;2022-12-18T08:10:04;16.87;;;10.37;;
9547;SDS011;4812;51.992;8.648;2022-12-18T08:12:33;18.07;;;10.63;;
9547;SDS011;4812;51.992;8.648;2022-12-18T08:15:00;15.83;;;11.27;;
9547;SDS011;4812;51.992;8.648;2022-12-18T08:17:28;19.30;;;11.37;;
9547;SDS011;4812;51.992;8.648;2022-12-18T08:19:56;21.47;;;11.47;;
9547;SDS011;4812;51.992;8.648;2022-12-18T08:22:23;22.13;;;10.97;;
9547;SDS011;4812;51.992;8.648;2022-12-18T08:24:51;19.57;;;11.23;;
9547;SDS011;4812;51.992;8.648;2022-12-18T08:27:20;15.60;;;9.30;;
9547;SDS011;4812;51.992;8.648;2022-12-18T08:29:55;19.80;;;10.77;;
9547;SDS011;4812;51.992;8.648;2022-12-18T08:32:23;15.13;;;9.47;;
9547;SDS011;4812;51.992;8.648;2022-12-18T08:34:50;19.90;;;10.83;;
9547;SDS011;4812;51.992;8.648;2022-12-18T08:37:18;23.13;;;11.47;;
9547;SDS011;4812;51.992;8.648;2022-12-18T08:39:45;13.97;;;10.33;;
9547;SDS011;4812;51.992;8.648;2022-12-18T08:42:13;18.77;;;11.87;;
9547;SDS011;4812;51.992;8.648;2022-12-18T08:44:55;22.87;;;12.30;;
9547;SDS011;4812;51.992;8.648;2022-12-18T08:47:23;22.13;;;11.00;;
9547;SDS011;4812;51.992;8.648;2022-12-18T08:49:52;25.17;;;11.63;;
9547;SDS011;4812;51.992;8.648;2022-12-18T08:52:19;19.87;;;10.97;;
9547;SDS011;4812;51.992;8.648;2022-12-18T08:54:47;19.17;;;12.03;;
9547;SDS011;4812;51.992;8.648;2022-12-18T08:57:14;20.93;;;10.97;;
9547;SDS011;4812;51.992;8.648;2022-12-18T08:59:42;23.00;;;12.40;;
9547;SDS011;4812;51.992;8.648;2022-12-18T09:02:10;18.37;;;10.20;;
9547;SDS011;4812;51.992;8.648;2022-12-18T09:04:38;21.97;;;10.80;;
9547;SDS011;4812;51.992;8.648;2022-12-18T09:09:09;23.10;;;11.20;;
9547;SDS011;4812;51.992;8.648;2022-12-18T09:11:37;24.30;;;11.37;;
9547;SDS011;4812;51.992;8.648;2022-12-18T09:14:05;19.73;;;12.23;;
9547;SDS011;4812;51.992;8.648;2022-12-18T09:16:32;18.57;;;12.03;;
9547;SDS011;4812;51.992;8.648;2022-12-18T09:19:01;20.10;;;11.50;;
9547;SDS011;4812;51.992;8.648;2022-12-18T09:21:30;18.60;;;11.83;;
9547;SDS011;4812;51.992;8.648;2022-12-18T09:24:02;20.50;;;11.77;;
9547;SDS011;4812;51.992;8.648;2022-12-18T09:26:35;22.23;;;11.63;;
9547;SDS011;4812;51.992;8.648;2022-12-18T09:29:03;22.80;;;12.33;;
9547;SDS011;4812;51.992;8.648;2022-12-18T09:31:33;22.03;;;12.03;;
9547;SDS011;4812;51.992;8.648;2022-12-18T09:34:03;20.67;;;12.67;;
9547;SDS011;4812;51.992;8.648;2022-12-18T09:36:34;20.10;;;12.30;;
9547;SDS011;4812;51.992;8.648;2022-12-18T09:39:01;22.80;;;12.97;;
9547;SDS011;4812;51.992;8.648;2022-12-18T09:41:44;21.20;;;10.90;;
9547;SDS011;4812;51.992;8.648;2022-12-18T09:44:15;21.10;;;11.60;;
9547;SDS011;4812;51.992;8.648;2022-12-18T09:46:47;21.47;;;11.60;;
9547;SDS011;4812;51.992;8.648;2022-12-18T09:49:17;15.13;;;10.97;;
9547;SDS011;4812;51.992;8.648;2022-12-18T09:51:47;19.10;;;11.33;;
9547;SDS011;4812;51.992;8.648;2022-12-18T09:54:18;16.50;;;11.20;;
9547;SDS011;4812;51.992;8.648;2022-12-18T09:56:49;18.10;;;11.23;;
9547;SDS011;4812;51.992;8.648;2022-12-18T09:59:21;19.47;;;11.67;;
9547;SDS011;4812;51.992;8.648;2022-12-18T10:01:50;20.43;;;10.90;;
9547;SDS011;4812;51.992;8.648;2022-12-18T10:04:18;18.67;;;11.90;;
9547;SDS011;4812;51.992;8.648;2022-12-18T10:06:47;16.43;;;10.87;;
9547;SDS011;4812;51.992;8.648;2022-12-18T10:09:20;29.43;;;11.43;;
9547;SDS011;4812;51.992;8.648;2022-12-18T10:11:55;16.47;;;9.90;;
9547;SDS011;4812;51.992;8.648;2022-12-18T10:14:29;17.70;;;10.73;;
9547;SDS011;4812;51.992;8.648;2022-12-18T10:17:01;15.63;;;10.17;;
9547;SDS011;4812;51.992;8.648;2022-12-18T10:19:38;20.10;;;12.53;;
9547;SDS011;4812;51.992;8.648;2022-12-18T10:22:11;16.63;;;10.60;;
9547;SDS011;4812;51.992;8.648;2022-12-18T10:24:52;17.83;;;10.93;;
9547;SDS011;4812;51.992;8.648;2022-12-18T10:43:38;17.13;;;11.57;;
9547;SDS011;4812;51.992;8.648;2022-12-18T10:46:14;13.93;;;11.57;;
9547;SDS011;4812;51.992;8.648;2022-12-18T10:48:48;18.60;;;11.73;;
9547;SDS011;4812;51.992;8.648;2022-12-18T10:51:19;15.33;;;11.33;;
9547;SDS011;4812;51.992;8.648;2022-12-18T10:53:51;19.00;;;13.47;;
9547;SDS011;4812;51.992;8.648;2022-12-18T10:56:21;20.20;;;13.30;;
9547;SDS011;4812;51.992;8.648;2022-12-18T10:58:56;19.63;;;12.73;;
9547;SDS011;4812;51.992;8.648;2022-12-18T11:01:25;18.00;;;12.70;;
9547;SDS011;4812;51.992;8.648;2022-12-18T11:03:59;15.43;;;12.17;;
9547;SDS011;4812;51.992;8.648;2022-12-18T11:06:29;14.07;;;10.63;;
9547;SDS011;4812;51.992;8.648;2022-12-18T11:09:00;15.57;;;11.80;;
9547;SDS011;4812;51.992;8.648;2022-12-18T11:11:38;14.70;;;10.10;;
9547;SDS011;4812;51.992;8.648;2022-12-18T11:14:12;15.07;;;11.47;;
9547;SDS011;4812;51.992;8.648;2022-12-18T11:16:46;17.03;;;11.87;;
9547;SDS011;4812;51.992;8.648;2022-12-18T11:19:34;11.80;;;9.37;;
9547;SDS011;4812;51.992;8.648;2022-12-18T11:22:03;17.67;;;11.23;;
9547;SDS011;4812;51.992;8.648;2022-12-18T11:24:51;14.07;;;10.83;;
9547;SDS011;4812;51.992;8.648;2022-12-18T11:27:40;14.07;;;10.13;;
9547;SDS011;4812;51.992;8.648;2022-12-18T11:30:13;14.53;;;10.93;;
9547;SDS011;4812;51.992;8.648;2022-12-18T11:32:49;17.23;;;11.73;;
9547;SDS011;4812;51.992;8.648;2022-12-18T11:35:17;12.77;;;10.57;;
9547;SDS011;4812;51.992;8.648;2022-12-18T11:37:49;14.70;;;10.70;;
9547;SDS011;4812;51.992;8.648;2022-12-18T11:40:25;15.47;;;12.07;;
9547;SDS011;4812;51.992;8.648;2022-12-18T11:42:56;13.43;;;11.43;;
9547;SDS011;4812;51.992;8.648;2022-12-18T11:45:30;14.97;;;11.23;;
9547;SDS011;4812;51.992;8.648;2022-12-18T11:48:01;13.03;;;10.17;;
9547;SDS011;4812;51.992;8.648;2022-12-18T11:50:32;16.43;;;10.97;;
9547;SDS011;4812;51.992;8.648;2022-12-18T11:53:08;10.80;;;9.33;;
9547;SDS011;4812;51.992;8.648;2022-12-18T11:55:39;11.13;;;9.70;;
9547;SDS011;4812;51.992;8.648;2022-12-18T11:58:12;15.33;;;12.53;;
9547;SDS011;4812;51.992;8.648;2022-12-18T12:00:51;13.53;;;11.77;;
9547;SDS011;4812;51.992;8.648;2022-12-18T12:03:32;13.77;;;12.37;;
9547;SDS011;4812;51.992;8.648;2022-12-18T12:06:10;15.40;;;12.47;;
9547;SDS011;4812;51.992;8.648;2022-12-18T12:08:44;13.47;;;11.93;;
9547;SDS011;4812;51.992;8.648;2022-12-18T12:11:21;13.03;;;11.63;;
9547;SDS011;4812;51.992;8.648;2022-12-18T12:13:56;14.20;;;12.67;;
9547;SDS011;4812;51.992;8.648;2022-12-18T12:16:33;16.73;;;11.93;;
9547;SDS011;4812;51.992;8.648;2022-12-18T12:19:08;14.53;;;11.17;;
9547;SDS011;4812;51.992;8.648;2022-12-18T12:21:45;11.80;;;10.00;;
9547;SDS011;4812;51.992;8.648;2022-12-18T12:24:59;11.43;;;10.33;;
9547;SDS011;4812;51.992;8.648;2022-12-18T12:27:35;13.07;;;9.97;;
9547;SDS011;4812;51.992;8.648;2022-12-18T12:30:09;10.57;;;9.50;;
9547;SDS011;4812;51.992;8.648;2022-12-18T12:32:45;10.20;;;9.27;;
9547;SDS011;4812;51.992;8.648;2022-12-18T12:35:23;11.30;;;10.20;;
9547;SDS011;4812;51.992;8.648;2022-12-18T12:37:57;10.93;;;9.77;;
9547;SDS011;4812;51.992;8.648;2022-12-18T12:40:34;10.67;;;9.60;;
9547;SDS011;4812;51.992;8.648;2022-12-18T12:43:27;9.87;;;8.87;;
9547;SDS011;4812;51.992;8.648;2022-12-18T12:46:02;13.63;;;9.93;;
9547;SDS011;4812;51.992;8.648;2022-12-18T12:48:35;10.97;;;9.97;;
9547;SDS011;4812;51.992;8.648;2022-12-18T12:51:08;10.67;;;9.67;;
9547;SDS011;4812;51.992;8.648;2022-12-18T12:53:40;11.63;;;10.30;;
9547;SDS011;4812;51.992;8.648;2022-12-18T12:56:11;11.27;;;10.07;;
9547;SDS011;4812;51.992;8.648;2022-12-18T12:58:43;11.00;;;10.00;;
9547;SDS011;4812;51.992;8.648;2022-12-18T13:01:17;12.07;;;10.87;;
9547;SDS011;4812;51.992;8.648;2022-12-18T13:03:54;12.00;;;10.70;;
9547;SDS011;4812;51.992;8.648;2022-12-18T13:06:28;11.77;;;10.60;;
9547;SDS011;4812;51.992;8.648;2022-12-18T13:09:05;11.33;;;10.23;;
9547;SDS011;4812;51.992;8.648;2022-12-18T13:11:38;11.37;;;10.17;;
9547;SDS011;4812;51.992;8.648;2022-12-18T13:14:29;10.83;;;9.73;;
9547;SDS011;4812;51.992;8.648;2022-12-18T13:20:04;12.57;;;11.27;;
9547;SDS011;4812;51.992;8.648;2022-12-18T13:22:34;11.80;;;10.70;;
9547;SDS011;4812;51.992;8.648;2022-12-18T13:25:03;12.27;;;11.07;;
9547;SDS011;4812;51.992;8.648;2022-12-18T13:28:00;11.33;;;10.20;;
9547;SDS011;4812;51.992;8.648;2022-12-18T13:30:42;10.67;;;9.70;;
9547;SDS011;4812;51.992;8.648;2022-12-18T13:36:28;8.80;;;8.00;;
9547;SDS011;4812;51.992;8.648;2022-12-18T13:45:41;10.30;;;7.97;;
9547;SDS011;4812;51.992;8.648;2022-12-18T13:48:17;11.50;;;9.67;;
9547;SDS011;4812;51.992;8.648;2022-12-18T13:50:49;10.43;;;8.97;;
9547;SDS011;4812;51.992;8.648;2022-12-18T13:53:21;12.50;;;8.97;;
9547;SDS011;4812;51.992;8.648;2022-12-18T13:55:51;10.27;;;8.40;;
9547;SDS011;4812;51.992;8.648;2022-12-18T13:58:20;9.43;;;7.83;;
9547;SDS011;4812;51.992;8.648;2022-12-18T14:00:47;9.27;;;7.73;;
9547;SDS011;4812;51.992;8.648;2022-12-18T14:03:18;9.87;;;8.50;;
9547;SDS011;4812;51.992;8.648;2022-12-18T14:05:52;10.10;;;8.57;;
9547;SDS011;4812;51.992;8.648;2022-12-18T14:08:21;12.77;;;8.67;;
9547;SDS011;4812;51.992;8.648;2022-12-18T14:10:52;10.30;;;7.97;;
9547;SDS011;4812;51.992;8.648;2022-12-18T14:13:23;9.60;;;8.23;;
9547;SDS011;4812;51.992;8.648;2022-12-18T14:15:54;8.80;;;8.00;;
9547;SDS011;4812;51.992;8.648;2022-12-18T14:18:24;11.17;;;8.47;;
9547;SDS011;4812;51.992;8.648;2022-12-18T14:20:54;12.07;;;8.17;;
9547;SDS011;4812;51.992;8.648;2022-12-18T14:23:28;10.83;;;8.13;;
9547;SDS011;4812;51.992;8.648;2022-12-18T14:25:57;12.23;;;9.13;;
9547;SDS011;4812;51.992;8.648;2022-12-18T14:28:32;8.67;;;7.30;;
9547;SDS011;4812;51.992;8.648;2022-12-18T14:30:59;11.20;;;8.13;;
9547;SDS011;4812;51.992;8.648;2022-12-18T14:33:27;13.03;;;8.10;;
9547;SDS011;4812;51.992;8.648;2022-12-18T14:35:56;12.10;;;8.07;;
9547;SDS011;4812;51.992;8.648;2022-12-18T14:38:26;9.90;;;7.93;;
9547;SDS011;4812;51.992;8.648;2022-12-18T14:40:59;10.00;;;8.00;;
9547;SDS011;4812;51.992;8.648;2022-12-18T14:43:28;10.63;;;8.27;;
9547;SDS011;4812;51.992;8.648;2022-12-18T14:45:58;8.27;;;6.90;;
9547;SDS011;4812;51.992;8.648;2022-12-18T14:48:33;8.70;;;6.97;;
9547;SDS011;4812;51.992;8.648;2022-12-18T14:51:03;7.63;;;6.90;;
9547;SDS011;4812;51.992;8.648;2022-12-18T14:53:36;11.00;;;7.60;;
9547;SDS011;4812;51.992;8.648;2022-12-18T14:56:15;9.93;;;8.03;;
9547;SDS011;4812;51.992;8.648;2022-12-18T14:58:47;7.53;;;6.80;;
9547;SDS011;4812;51.992;8.648;2022-12-18T15:01:21;8.60;;;7.70;;
9547;SDS011;4812;51.992;8.648;2022-12-18T15:03:51;8.90;;;8.00;;
9547;SDS011;4812;51.992;8.648;2022-12-18T15:06:24;8.23;;;7.20;;
9547;SDS011;4812;51.992;8.648;2022-12-18T15:08:53;9.87;;;7.90;;
9547;SDS011;4812;51.992;8.648;2022-12-18T15:11:34;10.07;;;8.03;;
9547;SDS011;4812;51.992;8.648;2022-12-18T15:14:22;9.60;;;7.83;;
9547;SDS011;4812;51.992;8.648;2022-12-18T15:17:02;9.13;;;8.07;;
9547;SDS011;4812;51.992;8.648;2022-12-18T15:19:37;8.77;;;7.63;;
9547;SDS011;4812;51.992;8.648;2022-12-18T15:22:16;9.20;;;7.47;;
9547;SDS011;4812;51.992;8.648;2022-12-18T15:24:47;9.17;;;6.97;;
9547;SDS011;4812;51.992;8.648;2022-12-18T15:27:20;9.70;;;8.30;;
9547;SDS011;4812;51.992;8.648;2022-12-18T15:32:51;11.87;;;8.10;;
9547;SDS011;4812;51.992;8.648;2022-12-18T15:35:21;14.27;;;9.93;;
9547;SDS011;4812;51.992;8.648;2022-12-18T15:37:49;12.27;;;8.33;;
9547;SDS011;4812;51.992;8.648;2022-12-18T15:40:18;14.63;;;9.60;;
9547;SDS011;4812;51.992;8.648;2022-12-18T15:42:47;10.90;;;8.13;;
9547;SDS011;4812;51.992;8.648;2022-12-18T15:45:32;9.50;;;8.50;;
9547;SDS011;4812;51.992;8.648;2022-12-18T15:48:07;13.37;;;9.30;;
9547;SDS011;4812;51.992;8.648;2022-12-18T15:50:42;9.83;;;7.87;;
9547;SDS011;4812;51.992;8.648;2022-12-18T15:53:09;13.23;;;10.13;;